Terminal Aerodrome Forecast
Issued by NWS

Home | Current Version | Previous Version | Text Only | Print | Product List | Glossary On
Versions: 1 2 3 4 5 6 7 8 9 10 11 12 13 14 15 16
000
FTUS43 KAPX 210500
TAFMBL
TAF
KMBL 210529Z 2106/2206 VRB03KT P6SM VCSH SCT025 OVC040
     FM210645 VRB05KT 5SM SHRA OVC022
     FM210830 35005KT 6SM -SHRA OVC025
     FM211500 35013G22KT P6SM OVC035
     FM220000 36010KT P6SM SCT040
      AMD LTD TO CLD VIS AND WIND=

USA.gov is the U.S. government's official web portal to all federal, state and local government web resources and services.